Latest Weather Observations for South Channel Island

IDV60801

Issued at 8:02 am EDT Monday 2 February 2015 (issued every 30 minutes, with the page automatically refreshed every 10 minutes)

About weather observations | Map of weather stations | Latest weather observations for VIC | Other Formats
Station Details ID: 086344 Name: SOUTH CHANNEL ISLAND Lat: -38.31 Lon: 144.80 Height: 9.0 m
Data from the previous 72 hours. | See also: Recent months for locations in Victoria
Date/Time
EDT
Temp
°C
App
Temp
°C
Dew
Point
Rel
Hum
%
Delta-T
°C
Wind Press
QNH
hPa
Press
MSL
hPa
Rain
since 9 am
mm
Dir
 
Spd
km/h
Gust
km/h
Spd
kts
Gust
kts
02/08:00am - - - - - SW 30 35 16 19 - - -
02/07:30am - - - - - SW 33 37 18 20 - - -
02/07:00am - - - - - SW 33 37 18 20 - - -
02/06:30am - - - - - SW 32 39 17 21 - - -
02/06:00am - - - - - SSW 32 37 17 20 - - -
02/05:30am - - - - - SSW 33 41 18 22 - - -
02/05:00am - - - - - SW 35 41 19 22 - - -
02/04:30am - - - - - SSW 32 39 17 21 - - -
02/04:00am - - - - - SSW 28 35 15 19 - - -
02/03:30am - - - - - SSW 28 33 15 18 - - -
02/03:00am - - - - - SSW 32 37 17 20 - - -
02/02:30am - - - - - SSW 32 37 17 20 - - -
02/02:00am - - - - - SSW 35 41 19 22 - - -
02/01:30am - - - - - SSW 33 39 18 21 - - -
02/01:00am - - - - - S 35 39 19 21 - - -
02/12:30am - - - - - SSW 35 41 19 22 - - -
02/12:00am - - - - - S 35 44 19 24 - - -
 
Date/Time
EDT
Temp
°C
App
Temp
°C
Dew
Point
Rel
Hum
%
Delta-T
°C
Wind Press
QNH
hPa
Press
MSL
hPa
Rain
since 9 am
mm
Dir
 
Spd
km/h
Gust
km/h
Spd
kts
Gust
kts
01/11:30pm - - - - - SSW 41 52 22 28 - - -
01/11:00pm - - - - - S 46 54 25 29 - - -
01/10:30pm - - - - - S 43 50 23 27 - - -
01/10:00pm - - - - - S 39 48 21 26 - - -
01/09:30pm - - - - - SSW 44 54 24 29 - - -
01/09:00pm - - - - - S 46 56 25 30 - - -
01/08:30pm - - - - - SSW 46 52 25 28 - - -
01/08:00pm - - - - - S 46 54 25 29 - - -
01/07:30pm - - - - - S 48 57 26 31 - - -
01/07:00pm - - - - - SSW 48 57 26 31 - - -
01/06:30pm - - - - - SSW 44 54 24 29 - - -
01/06:00pm - - - - - SSW 46 56 25 30 - - -
01/05:30pm - - - - - S 44 54 24 29 - - -
01/05:00pm - - - - - SSW 46 54 25 29 - - -
01/04:30pm - - - - - SSW 44 54 24 29 - - -
01/04:00pm - - - - - SSW 46 56 25 30 - - -
01/03:30pm - - - - - SSW 46 56 25 30 - - -
01/03:00pm - - - - - SSW 46 52 25 28 - - -
01/02:30pm - - - - - SSW 46 52 25 28 - - -
01/02:00pm - - - - - SSW 46 54 25 29 - - -
01/01:30pm - - - - - SSW 43 52 23 28 - - -
01/01:00pm - - - - - SSW 43 54 23 29 - - -
01/12:30pm - - - - - SSW 43 52 23 28 - - -
01/12:00pm - - - - - SSW 43 50 23 27 - - -
01/11:30am - - - - - SSW 44 52 24 28 - - -
01/11:00am - - - - - SSW 43 52 23 28 - - -
01/10:30am - - - - - SSW 41 48 22 26 - - -
01/10:00am - - - - - SSW 37 41 20 22 - - -
01/09:30am - - - - - SSW 35 43 19 23 - - -
01/09:00am - - - - - SW 35 41 19 22 - - -
01/08:30am - - - - - SW 35 43 19 23 - - -
01/08:00am - - - - - SW 39 48 21 26 - - -
01/07:30am - - - - - SW 37 44 20 24 - - -
01/07:00am - - - - - SW 39 48 21 26 - - -
01/06:30am - - - - - SW 32 37 17 20 - - -
01/06:00am - - - - - SSW 37 44 20 24 - - -
01/05:30am - - - - - SSW 37 44 20 24 - - -
01/05:00am - - - - - SSW 35 43 19 23 - - -
01/04:30am - - - - - SW 37 43 20 23 - - -
01/04:00am - - - - - SSW 37 44 20 24 - - -
01/03:30am - - - - - SSW 39 48 21 26 - - -
01/03:00am - - - - - SSW 35 46 19 25 - - -
01/02:30am - - - - - SW 33 41 18 22 - - -
01/02:00am - - - - - SW 35 44 19 24 - - -
01/01:30am - - - - - SW 37 41 20 22 - - -
01/01:00am - - - - - SW 35 41 19 22 - - -
01/12:30am - - - - - SW 32 37 17 20 - - -
01/12:00am - - - - - SW 33 41 18 22 - - -
 
Date/Time
EDT
Temp
°C
App
Temp
°C
Dew
Point
Rel
Hum
%
Delta-T
°C
Wind Press
QNH
hPa
Press
MSL
hPa
Rain
since 9 am
mm
Dir
 
Spd
km/h
Gust
km/h
Spd
kts
Gust
kts
31/11:30pm - - - - - SSW 32 37 17 20 - - -
31/11:00pm - - - - - SW 37 44 20 24 - - -
31/10:30pm - - - - - SW 35 41 19 22 - - -
31/10:00pm - - - - - SW 33 41 18 22 - - -
31/09:30pm - - - - - SW 37 44 20 24 - - -
31/09:00pm - - - - - SSW 41 48 22 26 - - -
31/08:30pm - - - - - SSW 41 50 22 27 - - -
31/08:00pm - - - - - SSW 39 44 21 24 - - -
31/07:30pm - - - - - SW 37 46 20 25 - - -
31/07:00pm - - - - - SW 39 50 21 27 - - -
31/06:30pm - - - - - SSW 37 50 20 27 - - -
31/06:00pm - - - - - SW 39 48 21 26 - - -
31/05:30pm - - - - - SSW 39 48 21 26 - - -
31/05:00pm - - - - - SW 37 48 20 26 - - -
31/04:30pm - - - - - SSW 41 50 22 27 - - -
31/04:00pm - - - - - SW 39 48 21 26 - - -
31/03:30pm - - - - - SW 39 46 21 25 - - -
31/03:00pm - - - - - SW 37 46 20 25 - - -
31/02:30pm - - - - - SW 37 46 20 25 - - -
31/02:00pm - - - - - SSW 41 48 22 26 - - -
31/01:30pm - - - - - SSW 37 46 20 25 - - -
31/01:00pm - - - - - SSW 33 41 18 22 - - -
31/12:30pm - - - - - SSW 37 44 20 24 - - -
31/12:00pm - - - - - SSW 37 44 20 24 - - -
31/11:30am - - - - - SSW 37 44 20 24 - - -
31/11:00am - - - - - SSW 37 43 20 23 - - -
31/10:30am - - - - - SSW 39 46 21 25 - - -
31/10:00am - - - - - SSW 37 44 20 24 - - -
31/09:30am - - - - - SSW 39 46 21 25 - - -
31/09:00am - - - - - SW 37 44 20 24 - - -
31/08:30am - - - - - SW 37 44 20 24 - - -
31/08:00am - - - - - SW 33 39 18 21 - - -
31/07:30am - - - - - SW 35 46 19 25 - - -
31/07:00am - - - - - SW 41 48 22 26 - - -
31/06:30am - - - - - SW 41 46 22 25 - - -
31/06:00am - - - - - SW 35 41 19 22 - - -
31/05:30am - - - - - SW 33 39 18 21 - - -
31/05:00am - - - - - SW 32 39 17 21 - - -
31/04:30am - - - - - SSW 33 39 18 21 - - -
31/04:00am - - - - - SW 32 35 17 19 - - -
31/03:30am - - - - - SW 32 35 17 19 - - -
31/03:00am - - - - - SW 33 39 18 21 - - -
31/02:30am - - - - - SW 32 37 17 20 - - -
31/02:00am - - - - - SSW 32 37 17 20 - - -
31/01:30am - - - - - SSW 33 39 18 21 - - -
31/01:00am - - - - - SSW 33 37 18 20 - - -
31/12:30am - - - - - SSW 35 41 19 22 - - -
31/12:00am - - - - - SW 26 30 14 16 - - -
 
Date/Time
EDT
Temp
°C
App
Temp
°C
Dew
Point
Rel
Hum
%
Delta-T
°C
Wind Press
QNH
hPa
Press
MSL
hPa
Rain
since 9 am
mm
Dir
 
Spd
km/h
Gust
km/h
Spd
kts
Gust
kts
30/11:30pm - - - - - SW 28 32 15 17 - - -
30/11:00pm - - - - - SW 28 33 15 18 - - -
30/10:30pm - - - - - SW 28 32 15 17 - - -
30/10:00pm - - - - - SW 26 32 14 17 - - -
30/09:30pm - - - - - SSW 24 30 13 16 - - -
30/09:00pm - - - - - SSW 24 30 13 16 - - -
30/08:30pm - - - - - S 30 37 16 20 - - -
30/08:00pm - - - - - SSW 28 33 15 18 - - -
30/07:30pm - - - - - S 28 33 15 18 - - -
30/07:00pm - - - - - S 28 33 15 18 - - -
30/06:30pm - - - - - SSW 28 33 15 18 - - -
30/06:00pm - - - - - S 30 35 16 19 - - -
30/05:30pm - - - - - S 30 35 16 19 - - -
30/05:00pm - - - - - S 32 37 17 20 - - -
30/04:30pm - - - - - S 32 37 17 20 - - -
30/04:00pm - - - - - S 32 39 17 21 - - -
30/03:30pm - - - - - SSW 32 39 17 21 - - -
30/03:00pm - - - - - SSW 30 41 16 22 - - -
30/02:30pm - - - - - SSW 32 39 17 21 - - -
30/02:00pm - - - - - S 33 41 18 22 - - -
30/01:30pm - - - - - SSW 30 37 16 20 - - -
30/01:00pm - - - - - SSW 26 32 14 17 - - -
30/12:30pm - - - - - SSW 28 35 15 19 - - -
30/12:00pm - - - - - S 28 33 15 18 - - -
30/11:30am - - - - - S 28 35 15 19 - - -
30/11:00am - - - - - SSE 24 33 13 18 - - -
30/10:30am - - - - - SSE 24 32 13 17 - - -
30/10:00am - - - - - E 6 9 3 5 - - -
30/09:30am - - - - - SE 9 11 5 6 - - -
30/09:00am - - - - - SSE 13 17 7 9 - - -
30/08:30am - - - - - ESE 9 15 5 8 - - -

Other Formats:

Comma delimited format used in spreadsheet applications
http://www.bom.gov.au/fwo/IDV60801/IDV60801.94853.axf

JavaScript Object Notation format (JSON) in row-major order
http://www.bom.gov.au/fwo/IDV60801/IDV60801.94853.json